Lewis, Colorado
Current Conditions -  °F | °C
As of 11:53 PM on Thursday 18 Dec 2014 (Local Time) from KCEZ Reporting Station
Clear Clear  
Wind Chill: 14°   Ceiling: Unl
Heat Index: 22°   Visibility: 10mi
Dew Point: 20°   Wind: 6mph
Humidity: 92%   Direction: 30°NNE
Pressure: 30.2"   Gusts: NA
Location:  37.5°N, 108.66°W
Report Text: KCEZ 190653Z AUTO 03005KT 10SM CLR M06/M07 A3020 RMK AO2 SLP236 T10561067 400391056
Loading
Personal Weather Stations






























Interactive Weather Map New forecast layout! Learn more

10-Day Weather Forecast

Advertisements
Track Severe Weather on mobile